sensor_id;sensor_type;location;lat;lon;timestamp;pressure;altitude;pressure_sealevel;temperature;humidity
81155;BME280;70631;50.436;7.826;2024-03-25T00:01:50;98242.41;;;6.12;71.36
81155;BME280;70631;50.436;7.826;2024-03-25T00:04:15;98244.63;;;6.17;71.15
81155;BME280;70631;50.436;7.826;2024-03-25T00:06:40;98241.53;;;6.22;71.20
81155;BME280;70631;50.436;7.826;2024-03-25T00:09:06;98249.19;;;6.25;71.41
81155;BME280;70631;50.436;7.826;2024-03-25T00:11:33;98245.44;;;6.27;71.25
81155;BME280;70631;50.436;7.826;2024-03-25T00:13:58;98249.75;;;6.28;70.89
81155;BME280;70631;50.436;7.826;2024-03-25T00:16:23;98245.28;;;6.29;71.20
81155;BME280;70631;50.436;7.826;2024-03-25T00:18:48;98252.13;;;6.31;70.98
81155;BME280;70631;50.436;7.826;2024-03-25T00:21:14;98251.03;;;6.34;71.08
81155;BME280;70631;50.436;7.826;2024-03-25T00:23:39;98247.41;;;6.35;70.70
81155;BME280;70631;50.436;7.826;2024-03-25T00:26:04;98256.31;;;6.34;71.10
81155;BME280;70631;50.436;7.826;2024-03-25T00:28:29;98263.28;;;6.35;70.53
81155;BME280;70631;50.436;7.826;2024-03-25T00:30:55;98258.28;;;6.32;70.72
81155;BME280;70631;50.436;7.826;2024-03-25T00:33:20;98251.31;;;6.31;71.19
81155;BME280;70631;50.436;7.826;2024-03-25T00:35:45;98251.56;;;6.28;71.17
81155;BME280;70631;50.436;7.826;2024-03-25T00:38:11;98254.94;;;6.30;71.12
81155;BME280;70631;50.436;7.826;2024-03-25T00:40:36;98252.41;;;6.28;71.01
81155;BME280;70631;50.436;7.826;2024-03-25T00:43:02;98260.22;;;6.30;71.09
81155;BME280;70631;50.436;7.826;2024-03-25T00:45:27;98248.66;;;6.31;70.57
81155;BME280;70631;50.436;7.826;2024-03-25T00:47:58;98251.31;;;6.31;70.75
81155;BME280;70631;50.436;7.826;2024-03-25T00:50:24;98243.22;;;6.32;70.87
81155;BME280;70631;50.436;7.826;2024-03-25T00:52:50;98252.69;;;6.35;70.64
81155;BME280;70631;50.436;7.826;2024-03-25T00:55:15;98252.00;;;6.33;70.36
81155;BME280;70631;50.436;7.826;2024-03-25T00:57:40;98250.19;;;6.33;70.84
81155;BME280;70631;50.436;7.826;2024-03-25T01:00:06;98254.78;;;6.31;70.75
81155;BME280;70631;50.436;7.826;2024-03-25T01:02:31;98244.59;;;6.27;70.75
81155;BME280;70631;50.436;7.826;2024-03-25T01:04:57;98249.47;;;6.22;70.94
81155;BME280;70631;50.436;7.826;2024-03-25T01:07:24;98250.47;;;6.21;70.71
81155;BME280;70631;50.436;7.826;2024-03-25T01:09:50;98244.88;;;6.24;71.01
81155;BME280;70631;50.436;7.826;2024-03-25T01:12:15;98249.19;;;6.25;70.85
81155;BME280;70631;50.436;7.826;2024-03-25T01:14:40;98245.56;;;6.26;70.55
81155;BME280;70631;50.436;7.826;2024-03-25T01:17:06;98251.84;;;6.25;70.63
81155;BME280;70631;50.436;7.826;2024-03-25T01:19:31;98254.47;;;6.25;70.99
81155;BME280;70631;50.436;7.826;2024-03-25T01:21:56;98260.75;;;6.24;70.88
81155;BME280;70631;50.436;7.826;2024-03-25T01:24:21;98260.75;;;6.24;70.71
81155;BME280;70631;50.436;7.826;2024-03-25T01:26:48;98264.38;;;6.23;70.92
81155;BME280;70631;50.436;7.826;2024-03-25T01:29:13;98261.88;;;6.21;70.52
81155;BME280;70631;50.436;7.826;2024-03-25T01:31:38;98268.00;;;6.22;70.80
81155;BME280;70631;50.436;7.826;2024-03-25T01:34:04;98269.66;;;6.23;70.56
81155;BME280;70631;50.436;7.826;2024-03-25T01:36:29;98273.28;;;6.22;70.77
81155;BME280;70631;50.436;7.826;2024-03-25T01:38:55;98274.94;;;6.23;71.08
81155;BME280;70631;50.436;7.826;2024-03-25T01:41:22;98271.34;;;6.24;71.24
81155;BME280;70631;50.436;7.826;2024-03-25T01:43:50;98270.22;;;6.17;71.52
81155;BME280;70631;50.436;7.826;2024-03-25T01:46:17;98274.81;;;6.15;71.99
81155;BME280;70631;50.436;7.826;2024-03-25T01:48:44;98276.06;;;6.10;72.05
81155;BME280;70631;50.436;7.826;2024-03-25T01:51:11;98265.63;;;6.09;72.63
81155;BME280;70631;50.436;7.826;2024-03-25T01:53:38;98273.00;;;6.05;72.61
81155;BME280;70631;50.436;7.826;2024-03-25T01:56:04;98271.06;;;6.07;72.92
81155;BME280;70631;50.436;7.826;2024-03-25T01:58:30;98274.66;;;6.06;72.53
81155;BME280;70631;50.436;7.826;2024-03-25T02:00:58;98271.06;;;6.07;73.07
81155;BME280;70631;50.436;7.826;2024-03-25T02:03:24;98269.38;;;6.06;73.15
81155;BME280;70631;50.436;7.826;2024-03-25T02:06:00;98272.00;;;6.06;72.79
81155;BME280;70631;50.436;7.826;2024-03-25T02:08:26;98275.63;;;6.05;73.12
81155;BME280;70631;50.436;7.826;2024-03-25T02:10:53;98271.06;;;6.07;73.07
81155;BME280;70631;50.436;7.826;2024-03-25T02:13:19;98274.09;;;6.03;72.79
81155;BME280;70631;50.436;7.826;2024-03-25T02:15:45;98271.59;;;6.01;73.13
81155;BME280;70631;50.436;7.826;2024-03-25T02:18:10;98269.38;;;5.97;72.91
81155;BME280;70631;50.436;7.826;2024-03-25T02:20:35;98271.47;;;5.93;73.08
81155;BME280;70631;50.436;7.826;2024-03-25T02:23:01;98269.78;;;5.92;73.39
81155;BME280;70631;50.436;7.826;2024-03-25T02:25:27;98279.66;;;5.90;73.52
81155;BME280;70631;50.436;7.826;2024-03-25T02:27:52;98274.50;;;5.89;73.21
81155;BME280;70631;50.436;7.826;2024-03-25T02:30:18;98269.34;;;5.87;73.52
81155;BME280;70631;50.436;7.826;2024-03-25T02:32:43;98283.53;;;5.86;73.47
81155;BME280;70631;50.436;7.826;2024-03-25T02:35:12;98279.91;;;5.87;73.04
81155;BME280;70631;50.436;7.826;2024-03-25T02:37:39;98284.47;;;5.85;72.97
81155;BME280;70631;50.436;7.826;2024-03-25T02:40:07;98283.34;;;5.78;73.29
81155;BME280;70631;50.436;7.826;2024-03-25T02:42:34;98280.97;;;5.75;73.38
81155;BME280;70631;50.436;7.826;2024-03-25T02:44:59;98279.59;;;5.71;73.65
81155;BME280;70631;50.436;7.826;2024-03-25T02:47:25;98275.28;;;5.70;73.62
81155;BME280;70631;50.436;7.826;2024-03-25T02:49:50;98270.25;;;5.67;73.91
81155;BME280;70631;50.436;7.826;2024-03-25T02:52:16;98286.81;;;5.69;73.83
81155;BME280;70631;50.436;7.826;2024-03-25T02:54:42;98284.19;;;5.69;73.54
81155;BME280;70631;50.436;7.826;2024-03-25T02:57:07;98274.84;;;5.65;73.79
81155;BME280;70631;50.436;7.826;2024-03-25T02:59:32;98273.03;;;5.65;73.90
81155;BME280;70631;50.436;7.826;2024-03-25T03:01:57;98282.66;;;5.66;74.12
81155;BME280;70631;50.436;7.826;2024-03-25T03:04:23;98285.00;;;5.69;73.92
81155;BME280;70631;50.436;7.826;2024-03-25T03:06:48;98282.38;;;5.69;73.95
81155;BME280;70631;50.436;7.826;2024-03-25T03:09:13;98286.81;;;5.69;73.58
81155;BME280;70631;50.436;7.826;2024-03-25T03:11:38;98281.66;;;5.67;74.14
81155;BME280;70631;50.436;7.826;2024-03-25T03:14:04;98283.34;;;5.68;74.34
81155;BME280;70631;50.436;7.826;2024-03-25T03:16:29;98291.69;;;5.73;73.99
81155;BME280;70631;50.436;7.826;2024-03-25T03:18:55;98287.66;;;5.79;73.48
81155;BME280;70631;50.436;7.826;2024-03-25T03:21:20;98297.41;;;5.78;74.03
81155;BME280;70631;50.436;7.826;2024-03-25T03:23:45;98288.50;;;5.79;73.81
81155;BME280;70631;50.436;7.826;2024-03-25T03:26:10;98285.59;;;5.82;73.65
81155;BME280;70631;50.436;7.826;2024-03-25T03:28:36;98287.97;;;5.86;73.75
81155;BME280;70631;50.436;7.826;2024-03-25T03:31:01;98288.81;;;5.86;73.75
81155;BME280;70631;50.436;7.826;2024-03-25T03:33:26;98289.75;;;5.85;73.52
81155;BME280;70631;50.436;7.826;2024-03-25T03:35:51;98281.53;;;5.78;73.40
81155;BME280;70631;50.436;7.826;2024-03-25T03:38:17;98279.59;;;5.80;73.50
81155;BME280;70631;50.436;7.826;2024-03-25T03:40:44;98284.06;;;5.80;72.92
81155;BME280;70631;50.436;7.826;2024-03-25T03:43:09;98282.66;;;5.76;73.38
81155;BME280;70631;50.436;7.826;2024-03-25T03:45:34;98283.19;;;5.70;73.06
81155;BME280;70631;50.436;7.826;2024-03-25T03:48:01;98281.66;;;5.67;73.33
81155;BME280;70631;50.436;7.826;2024-03-25T03:50:26;98283.16;;;5.60;73.08
81155;BME280;70631;50.436;7.826;2024-03-25T03:52:51;98284.81;;;5.51;73.42
81155;BME280;70631;50.436;7.826;2024-03-25T03:55:16;98288.13;;;5.44;73.26
81155;BME280;70631;50.436;7.826;2024-03-25T03:57:42;98287.09;;;5.35;73.37
81155;BME280;70631;50.436;7.826;2024-03-25T04:00:08;98278.31;;;5.25;73.24
81155;BME280;70631;50.436;7.826;2024-03-25T04:02:34;98288.31;;;5.21;73.31
81155;BME280;70631;50.436;7.826;2024-03-25T04:04:59;98288.56;;;5.18;73.40
81155;BME280;70631;50.436;7.826;2024-03-25T04:07:24;98292.56;;;5.13;73.53
81155;BME280;70631;50.436;7.826;2024-03-25T04:09:53;98295.66;;;5.18;73.43
81155;BME280;70631;50.436;7.826;2024-03-25T04:12:19;98296.34;;;5.20;73.65
81155;BME280;70631;50.436;7.826;2024-03-25T04:14:46;98295.66;;;5.18;73.18
81155;BME280;70631;50.436;7.826;2024-03-25T04:17:12;98288.53;;;5.09;73.78
81155;BME280;70631;50.436;7.826;2024-03-25T04:19:38;98287.63;;;4.99;73.46
81155;BME280;70631;50.436;7.826;2024-03-25T04:22:03;98281.47;;;4.88;73.68
81155;BME280;70631;50.436;7.826;2024-03-25T04:24:28;98288.41;;;4.89;73.67
81155;BME280;70631;50.436;7.826;2024-03-25T04:26:53;98292.41;;;4.84;73.20
81155;BME280;70631;50.436;7.826;2024-03-25T04:29:19;98291.16;;;4.78;73.65
81155;BME280;70631;50.436;7.826;2024-03-25T04:31:44;98290.94;;;4.70;73.73
81155;BME280;70631;50.436;7.826;2024-03-25T04:34:10;98287.47;;;4.70;73.77
81155;BME280;70631;50.436;7.826;2024-03-25T04:36:35;98294.28;;;4.72;73.50
81155;BME280;70631;50.436;7.826;2024-03-25T04:39:01;98298.84;;;4.70;73.90
81155;BME280;70631;50.436;7.826;2024-03-25T04:41:26;98283.66;;;4.63;73.51
81155;BME280;70631;50.436;7.826;2024-03-25T04:43:51;98292.69;;;4.60;73.92
81155;BME280;70631;50.436;7.826;2024-03-25T04:46:17;98290.53;;;4.54;73.98
81155;BME280;70631;50.436;7.826;2024-03-25T04:48:42;98284.38;;;4.44;74.29
81155;BME280;70631;50.436;7.826;2024-03-25T04:51:07;98281.41;;;4.37;74.12
81155;BME280;70631;50.436;7.826;2024-03-25T04:53:34;98284.19;;;4.36;74.20
81155;BME280;70631;50.436;7.826;2024-03-25T04:55:59;98287.28;;;4.29;73.81
81155;BME280;70631;50.436;7.826;2024-03-25T04:58:24;98281.81;;;4.21;73.99
81155;BME280;70631;50.436;7.826;2024-03-25T05:00:49;98290.97;;;4.17;74.38
81155;BME280;70631;50.436;7.826;2024-03-25T05:03:15;98295.88;;;4.11;74.10
81155;BME280;70631;50.436;7.826;2024-03-25T05:05:40;98302.22;;;4.08;74.47
81155;BME280;70631;50.436;7.826;2024-03-25T05:08:06;98290.84;;;4.08;74.61
81155;BME280;70631;50.436;7.826;2024-03-25T05:10:31;98289.44;;;4.04;74.33
81155;BME280;70631;50.436;7.826;2024-03-25T05:12:56;98306.47;;;3.99;74.58
81155;BME280;70631;50.436;7.826;2024-03-25T05:15:22;98303.50;;;3.93;74.75
81155;BME280;70631;50.436;7.826;2024-03-25T05:17:47;98301.47;;;3.85;74.80
81155;BME280;70631;50.436;7.826;2024-03-25T05:20:12;98298.03;;;3.74;74.59
81155;BME280;70631;50.436;7.826;2024-03-25T05:22:38;98303.41;;;3.72;74.58
81155;BME280;70631;50.436;7.826;2024-03-25T05:25:03;98299.44;;;3.66;74.73
81155;BME280;70631;50.436;7.826;2024-03-25T05:27:29;98301.38;;;3.64;74.98
81155;BME280;70631;50.436;7.826;2024-03-25T05:29:54;98301.38;;;3.64;75.47
81155;BME280;70631;50.436;7.826;2024-03-25T05:32:19;98307.59;;;3.63;75.12
81155;BME280;70631;50.436;7.826;2024-03-25T05:34:46;98305.94;;;3.62;75.43
81155;BME280;70631;50.436;7.826;2024-03-25T05:37:13;98313.13;;;3.60;75.46
81155;BME280;70631;50.436;7.826;2024-03-25T05:39:38;98313.84;;;3.62;75.21
81155;BME280;70631;50.436;7.826;2024-03-25T05:42:03;98317.19;;;3.64;75.50
81155;BME280;70631;50.436;7.826;2024-03-25T05:44:29;98306.19;;;3.59;75.68
81155;BME280;70631;50.436;7.826;2024-03-25T05:46:54;98315.28;;;3.55;75.25
81155;BME280;70631;50.436;7.826;2024-03-25T05:49:19;98322.94;;;3.58;75.28
81155;BME280;70631;50.436;7.826;2024-03-25T05:51:44;98316.59;;;3.61;75.34
81155;BME280;70631;50.436;7.826;2024-03-25T05:54:09;98316.72;;;3.59;75.37
81155;BME280;70631;50.436;7.826;2024-03-25T05:56:35;98313.47;;;3.67;75.18
81155;BME280;70631;50.436;7.826;2024-03-25T05:59:00;98310.47;;;3.72;75.22
81155;BME280;70631;50.436;7.826;2024-03-25T06:01:26;98313.25;;;3.70;75.28
81155;BME280;70631;50.436;7.826;2024-03-25T06:03:51;98315.50;;;3.75;75.34
81155;BME280;70631;50.436;7.826;2024-03-25T06:06:16;98315.63;;;3.73;74.98
81155;BME280;70631;50.436;7.826;2024-03-25T06:08:42;98312.50;;;3.79;75.34
81155;BME280;70631;50.436;7.826;2024-03-25T06:11:10;98317.63;;;3.81;75.40
81155;BME280;70631;50.436;7.826;2024-03-25T06:13:35;98313.31;;;3.91;75.35
81155;BME280;70631;50.436;7.826;2024-03-25T06:16:00;98309.34;;;3.96;75.40
81155;BME280;70631;50.436;7.826;2024-03-25T06:18:26;98319.38;;;4.03;75.15
81155;BME280;70631;50.436;7.826;2024-03-25T06:20:51;98318.75;;;4.10;75.47
81155;BME280;70631;50.436;7.826;2024-03-25T06:25:49;98306.47;;;4.32;75.25
81155;BME280;70631;50.436;7.826;2024-03-25T06:28:15;98308.09;;;4.44;75.34
81155;BME280;70631;50.436;7.826;2024-03-25T06:30:40;98313.91;;;4.58;74.75
81155;BME280;70631;50.436;7.826;2024-03-25T06:33:24;98311.50;;;4.76;74.38
81155;BME280;70631;50.436;7.826;2024-03-25T06:36:08;98312.16;;;5.10;74.13
81155;BME280;70631;50.436;7.826;2024-03-25T06:38:33;98305.19;;;7.89;70.32
81155;BME280;70631;50.436;7.826;2024-03-25T06:40:58;98303.91;;;10.45;67.00
81155;BME280;70631;50.436;7.826;2024-03-25T06:43:23;98293.97;;;12.29;62.14
81155;BME280;70631;50.436;7.826;2024-03-25T06:45:49;98302.00;;;13.94;58.04
81155;BME280;70631;50.436;7.826;2024-03-25T06:48:14;98305.13;;;15.69;53.87
81155;BME280;70631;50.436;7.826;2024-03-25T06:50:39;98304.09;;;17.11;49.48
81155;BME280;70631;50.436;7.826;2024-03-25T06:53:04;98297.06;;;18.21;46.42
81155;BME280;70631;50.436;7.826;2024-03-25T06:55:30;98310.84;;;19.39;44.31
81155;BME280;70631;50.436;7.826;2024-03-25T06:57:55;98305.63;;;20.42;41.94
81155;BME280;70631;50.436;7.826;2024-03-25T07:00:20;98302.31;;;21.24;39.12
81155;BME280;70631;50.436;7.826;2024-03-25T07:02:50;98307.28;;;21.97;37.50
81155;BME280;70631;50.436;7.826;2024-03-25T07:05:16;98304.22;;;22.74;36.20
81155;BME280;70631;50.436;7.826;2024-03-25T07:07:41;98306.38;;;23.51;35.03
81155;BME280;70631;50.436;7.826;2024-03-25T07:10:07;98310.00;;;24.12;33.48
81155;BME280;70631;50.436;7.826;2024-03-25T07:12:32;98311.78;;;24.45;31.65
81155;BME280;70631;50.436;7.826;2024-03-25T07:14:57;98309.97;;;24.77;31.93
81155;BME280;70631;50.436;7.826;2024-03-25T07:17:23;98304.50;;;25.31;30.47
81155;BME280;70631;50.436;7.826;2024-03-25T07:19:48;98310.88;;;25.79;29.43
81155;BME280;70631;50.436;7.826;2024-03-25T07:22:13;98311.97;;;26.30;29.13
81155;BME280;70631;50.436;7.826;2024-03-25T07:24:39;98305.81;;;26.65;28.54
81155;BME280;70631;50.436;7.826;2024-03-25T07:27:04;98306.19;;;26.99;27.13
81155;BME280;70631;50.436;7.826;2024-03-25T07:29:30;98300.19;;;27.53;27.10
81155;BME280;70631;50.436;7.826;2024-03-25T07:31:56;98303.69;;;27.94;26.75
81155;BME280;70631;50.436;7.826;2024-03-25T07:34:21;98305.88;;;28.03;25.89
81155;BME280;70631;50.436;7.826;2024-03-25T07:36:46;98304.25;;;26.95;26.63
81155;BME280;70631;50.436;7.826;2024-03-25T07:39:13;98303.47;;;27.30;26.35
81155;BME280;70631;50.436;7.826;2024-03-25T07:41:39;98310.31;;;27.48;26.11
81155;BME280;70631;50.436;7.826;2024-03-25T07:44:04;98312.81;;;27.34;26.20
81155;BME280;70631;50.436;7.826;2024-03-25T07:46:30;98306.22;;;27.40;25.68
81155;BME280;70631;50.436;7.826;2024-03-25T07:48:55;98312.50;;;27.56;25.39
81155;BME280;70631;50.436;7.826;2024-03-25T07:51:21;98311.63;;;26.94;25.73
81155;BME280;70631;50.436;7.826;2024-03-25T07:53:47;98312.75;;;27.03;25.50
81155;BME280;70631;50.436;7.826;2024-03-25T07:56:12;98300.47;;;27.47;25.29
81155;BME280;70631;50.436;7.826;2024-03-25T07:58:37;98302.63;;;27.90;24.40
81155;BME280;70631;50.436;7.826;2024-03-25T08:01:02;98305.56;;;28.09;24.57
81155;BME280;70631;50.436;7.826;2024-03-25T08:03:28;98303.66;;;28.10;24.51
81155;BME280;70631;50.436;7.826;2024-03-25T08:05:53;98300.97;;;27.99;23.99
81155;BME280;70631;50.436;7.826;2024-03-25T08:08:18;98314.22;;;26.43;25.29
81155;BME280;70631;50.436;7.826;2024-03-25T08:10:45;98306.44;;;26.98;24.61
81155;BME280;70631;50.436;7.826;2024-03-25T08:13:10;98303.00;;;26.35;23.90
81155;BME280;70631;50.436;7.826;2024-03-25T08:15:35;98305.69;;;24.16;26.71
81155;BME280;70631;50.436;7.826;2024-03-25T08:18:01;98300.75;;;25.05;25.94
81155;BME280;70631;50.436;7.826;2024-03-25T08:20:26;98308.31;;;25.30;25.53
81155;BME280;70631;50.436;7.826;2024-03-25T08:22:51;98306.28;;;23.79;27.28
81155;BME280;70631;50.436;7.826;2024-03-25T08:25:16;98314.38;;;24.56;27.79
81155;BME280;70631;50.436;7.826;2024-03-25T08:27:42;98316.78;;;25.02;26.88
81155;BME280;70631;50.436;7.826;2024-03-25T08:30:07;98312.50;;;25.11;26.73
81155;BME280;70631;50.436;7.826;2024-03-25T08:32:33;98320.19;;;24.92;26.34
81155;BME280;70631;50.436;7.826;2024-03-25T08:34:58;98320.72;;;25.16;25.84
81155;BME280;70631;50.436;7.826;2024-03-25T08:37:23;98315.97;;;25.33;25.36
81155;BME280;70631;50.436;7.826;2024-03-25T08:39:49;98318.44;;;25.35;25.16
81155;BME280;70631;50.436;7.826;2024-03-25T08:42:14;98326.63;;;23.93;26.78
81155;BME280;70631;50.436;7.826;2024-03-25T08:44:39;98317.53;;;22.59;28.21
81155;BME280;70631;50.436;7.826;2024-03-25T08:47:04;98318.56;;;22.29;28.21
81155;BME280;70631;50.436;7.826;2024-03-25T08:49:30;98324.22;;;21.22;29.46
81155;BME280;70631;50.436;7.826;2024-03-25T08:51:55;98322.13;;;20.83;29.64
81155;BME280;70631;50.436;7.826;2024-03-25T08:54:20;98330.75;;;20.91;29.52
81155;BME280;70631;50.436;7.826;2024-03-25T08:56:45;98327.03;;;21.04;29.86
81155;BME280;70631;50.436;7.826;2024-03-25T08:59:11;98325.63;;;21.13;29.01
81155;BME280;70631;50.436;7.826;2024-03-25T09:01:36;98327.97;;;20.80;29.83
81155;BME280;70631;50.436;7.826;2024-03-25T09:04:02;98326.31;;;20.30;31.14
81155;BME280;70631;50.436;7.826;2024-03-25T09:06:28;98322.06;;;19.86;31.30
81155;BME280;70631;50.436;7.826;2024-03-25T09:08:54;98328.56;;;19.04;32.22
81155;BME280;70631;50.436;7.826;2024-03-25T09:11:37;98326.06;;;18.32;33.49
81155;BME280;70631;50.436;7.826;2024-03-25T09:14:03;98329.78;;;17.74;34.40
81155;BME280;70631;50.436;7.826;2024-03-25T09:16:29;98321.81;;;17.98;33.89
81155;BME280;70631;50.436;7.826;2024-03-25T09:18:55;98317.97;;;18.32;32.88
81155;BME280;70631;50.436;7.826;2024-03-25T09:21:20;98313.13;;;18.86;32.24
81155;BME280;70631;50.436;7.826;2024-03-25T09:23:46;98318.81;;;17.68;34.05
81155;BME280;70631;50.436;7.826;2024-03-25T09:26:11;98317.78;;;17.17;34.27
81155;BME280;70631;50.436;7.826;2024-03-25T09:28:37;98325.13;;;16.62;35.54
81155;BME280;70631;50.436;7.826;2024-03-25T09:31:02;98311.47;;;17.95;35.10
81155;BME280;70631;50.436;7.826;2024-03-25T09:33:27;98303.59;;;17.94;35.51
81155;BME280;70631;50.436;7.826;2024-03-25T09:35:53;98300.34;;;17.52;35.37
81155;BME280;70631;50.436;7.826;2024-03-25T09:38:18;98306.75;;;17.64;34.48
81155;BME280;70631;50.436;7.826;2024-03-25T09:40:43;98305.25;;;17.95;34.14
81155;BME280;70631;50.436;7.826;2024-03-25T09:43:33;98293.69;;;19.02;33.04
81155;BME280;70631;50.436;7.826;2024-03-25T09:46:02;98289.63;;;20.04;31.23
81155;BME280;70631;50.436;7.826;2024-03-25T09:48:29;98287.47;;;20.61;30.86
81155;BME280;70631;50.436;7.826;2024-03-25T09:50:56;98285.19;;;20.58;30.97
81155;BME280;70631;50.436;7.826;2024-03-25T09:53:22;98286.25;;;20.57;30.19
81155;BME280;70631;50.436;7.826;2024-03-25T09:55:47;98282.31;;;20.23;30.60
81155;BME280;70631;50.436;7.826;2024-03-25T09:58:14;98276.47;;;20.86;30.14
81155;BME280;70631;50.436;7.826;2024-03-25T10:00:40;98268.66;;;21.43;30.29
81155;BME280;70631;50.436;7.826;2024-03-25T10:03:05;98267.91;;;21.94;29.15
81155;BME280;70631;50.436;7.826;2024-03-25T10:05:31;98251.69;;;22.23;29.00
81155;BME280;70631;50.436;7.826;2024-03-25T10:07:57;98260.31;;;22.20;26.56
81155;BME280;70631;50.436;7.826;2024-03-25T10:10:22;98253.97;;;22.14;27.98
81155;BME280;70631;50.436;7.826;2024-03-25T10:12:48;98258.50;;;22.25;27.78
81155;BME280;70631;50.436;7.826;2024-03-25T10:15:16;98246.34;;;22.56;27.63
81155;BME280;70631;50.436;7.826;2024-03-25T10:17:42;98244.66;;;22.39;26.80
81155;BME280;70631;50.436;7.826;2024-03-25T10:20:08;98247.75;;;20.97;28.45
81155;BME280;70631;50.436;7.826;2024-03-25T10:22:44;98248.00;;;20.05;29.04
81155;BME280;70631;50.436;7.826;2024-03-25T10:25:23;98252.44;;;19.20;30.38
81155;BME280;70631;50.436;7.826;2024-03-25T10:28:01;98245.16;;;19.64;30.49
81155;BME280;70631;50.436;7.826;2024-03-25T10:30:27;98247.72;;;19.77;30.40
81155;BME280;70631;50.436;7.826;2024-03-25T10:35:27;98234.22;;;19.77;29.66
81155;BME280;70631;50.436;7.826;2024-03-25T10:37:56;98235.41;;;18.95;30.09
81155;BME280;70631;50.436;7.826;2024-03-25T10:40:24;98232.56;;;18.20;31.01
81155;BME280;70631;50.436;7.826;2024-03-25T10:42:51;98237.97;;;17.68;31.62
81155;BME280;70631;50.436;7.826;2024-03-25T10:45:16;98242.84;;;16.94;32.13
81155;BME280;70631;50.436;7.826;2024-03-25T10:47:42;98238.44;;;16.60;32.95
81155;BME280;70631;50.436;7.826;2024-03-25T10:50:09;98234.13;;;17.11;32.92
81155;BME280;70631;50.436;7.826;2024-03-25T10:52:37;98234.97;;;16.79;33.07
81155;BME280;70631;50.436;7.826;2024-03-25T10:55:03;98227.88;;;16.38;33.12
81155;BME280;70631;50.436;7.826;2024-03-25T10:57:29;98233.59;;;16.09;34.15
81155;BME280;70631;50.436;7.826;2024-03-25T10:59:55;98227.72;;;16.86;33.19
81155;BME280;70631;50.436;7.826;2024-03-25T11:02:22;98228.06;;;16.43;33.29
81155;BME280;70631;50.436;7.826;2024-03-25T11:04:47;98224.09;;;16.13;33.50
81155;BME280;70631;50.436;7.826;2024-03-25T11:07:15;98218.16;;;16.37;32.35
81155;BME280;70631;50.436;7.826;2024-03-25T11:09:41;98212.44;;;16.93;33.14
81155;BME280;70631;50.436;7.826;2024-03-25T11:12:10;98196.13;;;17.59;32.56
81155;BME280;70631;50.436;7.826;2024-03-25T11:14:35;98191.03;;;18.59;30.97
81155;BME280;70631;50.436;7.826;2024-03-25T11:17:01;98188.81;;;19.24;30.80
81155;BME280;70631;50.436;7.826;2024-03-25T11:19:28;98183.72;;;19.89;29.23
81155;BME280;70631;50.436;7.826;2024-03-25T11:21:54;98170.03;;;19.54;28.81
81155;BME280;70631;50.436;7.826;2024-03-25T11:24:29;98176.72;;;19.27;29.76
81155;BME280;70631;50.436;7.826;2024-03-25T11:26:55;98174.56;;;19.72;30.12
81155;BME280;70631;50.436;7.826;2024-03-25T11:29:21;98164.91;;;20.42;28.64
81155;BME280;70631;50.436;7.826;2024-03-25T11:31:49;98161.09;;;21.09;27.41
81155;BME280;70631;50.436;7.826;2024-03-25T11:34:14;98153.31;;;21.12;27.09
81155;BME280;70631;50.436;7.826;2024-03-25T11:36:39;98159.78;;;20.99;27.41
81155;BME280;70631;50.436;7.826;2024-03-25T11:39:06;98146.94;;;20.95;27.06
81155;BME280;70631;50.436;7.826;2024-03-25T11:41:44;98140.41;;;19.96;28.58
81155;BME280;70631;50.436;7.826;2024-03-25T11:44:11;98137.75;;;19.89;29.91
81155;BME280;70631;50.436;7.826;2024-03-25T11:46:38;98130.84;;;19.93;28.60
81155;BME280;70631;50.436;7.826;2024-03-25T11:49:15;98121.59;;;19.16;29.84
81155;BME280;70631;50.436;7.826;2024-03-25T11:51:43;98126.06;;;18.85;30.14
81155;BME280;70631;50.436;7.826;2024-03-25T11:54:10;98126.84;;;18.92;29.54
81155;BME280;70631;50.436;7.826;2024-03-25T11:56:36;98118.84;;;18.79;29.01
81155;BME280;70631;50.436;7.826;2024-03-25T11:59:03;98100.97;;;18.35;29.49
81155;BME280;70631;50.436;7.826;2024-03-25T12:01:28;98100.06;;;18.16;29.15
81155;BME280;70631;50.436;7.826;2024-03-25T12:03:54;98102.84;;;17.65;29.10
81155;BME280;70631;50.436;7.826;2024-03-25T12:06:19;98094.81;;;17.14;29.79
81155;BME280;70631;50.436;7.826;2024-03-25T12:08:45;98094.66;;;16.95;30.58
81155;BME280;70631;50.436;7.826;2024-03-25T12:11:30;98082.88;;;16.83;30.72
81155;BME280;70631;50.436;7.826;2024-03-25T12:13:55;98084.31;;;16.92;30.84
81155;BME280;70631;50.436;7.826;2024-03-25T12:16:21;98079.13;;;16.97;30.58
81155;BME280;70631;50.436;7.826;2024-03-25T12:18:46;98085.56;;;16.70;30.50
81155;BME280;70631;50.436;7.826;2024-03-25T12:21:11;98077.09;;;16.60;30.93
81155;BME280;70631;50.436;7.826;2024-03-25T12:23:37;98063.88;;;16.71;31.41
81155;BME280;70631;50.436;7.826;2024-03-25T12:26:03;98062.38;;;16.62;30.38
81155;BME280;70631;50.436;7.826;2024-03-25T12:28:31;98053.72;;;16.40;30.96
81155;BME280;70631;50.436;7.826;2024-03-25T12:30:56;98053.13;;;16.38;31.10
81155;BME280;70631;50.436;7.826;2024-03-25T12:33:23;98058.09;;;16.15;31.83
81155;BME280;70631;50.436;7.826;2024-03-25T12:35:49;98056.84;;;15.98;32.13
81155;BME280;70631;50.436;7.826;2024-03-25T12:38:30;98056.00;;;15.77;31.75
81155;BME280;70631;50.436;7.826;2024-03-25T12:41:10;98044.44;;;15.70;32.52
81155;BME280;70631;50.436;7.826;2024-03-25T12:43:43;98045.28;;;15.84;33.11
81155;BME280;70631;50.436;7.826;2024-03-25T12:46:08;98039.91;;;15.97;34.21
81155;BME280;70631;50.436;7.826;2024-03-25T12:48:39;98032.47;;;16.12;32.93
81155;BME280;70631;50.436;7.826;2024-03-25T12:51:06;98018.41;;;16.30;33.60
81155;BME280;70631;50.436;7.826;2024-03-25T12:53:39;98010.94;;;16.39;33.27
81155;BME280;70631;50.436;7.826;2024-03-25T12:56:05;98018.78;;;16.40;33.08
81155;BME280;70631;50.436;7.826;2024-03-25T12:58:31;98012.16;;;16.49;32.42
81155;BME280;70631;50.436;7.826;2024-03-25T13:00:56;98015.50;;;16.25;32.00
81155;BME280;70631;50.436;7.826;2024-03-25T13:03:21;98010.97;;;15.86;32.37
81155;BME280;70631;50.436;7.826;2024-03-25T13:05:46;98015.22;;;15.54;32.20